createdAt,value
2023-05-20T00:00:08.240Z,9.60
2023-05-20T00:02:36.120Z,9.60
2023-05-20T00:05:08.310Z,9.60
2023-05-20T00:07:35.693Z,9.50
2023-05-20T00:10:02.506Z,9.50
2023-05-20T00:12:29.384Z,9.40
2023-05-20T00:14:56.429Z,9.40
2023-05-20T00:17:23.406Z,9.40
2023-05-20T00:19:50.229Z,9.30
2023-05-20T00:22:17.201Z,9.30
2023-05-20T00:24:47.286Z,9.30
2023-05-20T00:27:18.606Z,9.30
2023-05-20T00:29:46.233Z,9.30
2023-05-20T00:32:16.481Z,9.20
2023-05-20T00:34:44.372Z,9.20
2023-05-20T00:37:11.375Z,10.00
2023-05-20T00:39:41.490Z,9.20
2023-05-20T00:42:08.527Z,9.20
2023-05-20T00:44:35.495Z,9.10
2023-05-20T00:47:02.475Z,9.10
2023-05-20T00:49:32.801Z,9.10
2023-05-20T00:52:00.047Z,9.20
2023-05-20T00:54:27.168Z,9.10
2023-05-20T00:56:54.547Z,9.10
2023-05-20T00:59:21.566Z,9.10
2023-05-20T01:01:49.268Z,9.10
2023-05-20T01:04:19.710Z,9.10
2023-05-20T01:06:50.043Z,9.00
2023-05-20T01:09:16.912Z,9.00
2023-05-20T01:11:51.221Z,9.00
2023-05-20T01:14:19.135Z,8.90
2023-05-20T01:16:48.236Z,8.90
2023-05-20T01:19:42.276Z,8.90
2023-05-20T01:22:13.016Z,8.90
2023-05-20T01:24:45.283Z,8.90
2023-05-20T01:27:13.629Z,8.90
2023-05-20T01:29:41.797Z,8.90
2023-05-20T01:32:15.473Z,8.90
2023-05-20T01:34:43.218Z,8.90
2023-05-20T01:37:11.110Z,8.90
2023-05-20T01:39:41.816Z,10.30
2023-05-20T01:42:10.474Z,8.90
2023-05-20T01:44:37.823Z,8.90
2023-05-20T01:47:04.922Z,8.90
2023-05-20T01:49:32.033Z,8.90
2023-05-20T01:51:59.449Z,8.80
2023-05-20T01:54:26.531Z,8.80
2023-05-20T01:56:53.729Z,8.80
2023-05-20T01:59:20.744Z,8.80
2023-05-20T02:01:47.855Z,8.80
2023-05-20T02:04:14.860Z,8.80
2023-05-20T02:06:41.809Z,8.70
2023-05-20T02:09:08.668Z,8.70
2023-05-20T02:11:36.357Z,8.70
2023-05-20T02:14:03.324Z,9.80
2023-05-20T02:16:30.511Z,8.70
2023-05-20T02:18:58.700Z,8.70
2023-05-20T02:21:26.549Z,8.70
2023-05-20T02:23:53.480Z,8.70
2023-05-20T02:26:20.849Z,8.70
2023-05-20T02:28:50.890Z,8.70
2023-05-20T02:31:18.234Z,8.70
2023-05-20T02:33:46.021Z,8.70
2023-05-20T02:36:13.072Z,8.70
2023-05-20T02:38:40.083Z,8.70
2023-05-20T02:41:07.006Z,8.70
2023-05-20T02:43:34.536Z,8.70
2023-05-20T02:46:01.510Z,8.70
2023-05-20T02:48:28.496Z,8.70
2023-05-20T02:50:55.911Z,8.70
2023-05-20T02:53:22.972Z,8.70
2023-05-20T02:55:50.484Z,8.70
2023-05-20T02:58:17.645Z,8.60
2023-05-20T03:00:44.691Z,8.60
2023-05-20T03:03:11.882Z,8.60
2023-05-20T03:05:38.809Z,8.60
2023-05-20T03:08:10.476Z,8.60
2023-05-20T03:10:38.924Z,8.60
2023-05-20T03:13:11.694Z,8.70
2023-05-20T03:15:42.976Z,8.70
2023-05-20T03:18:09.923Z,8.70
2023-05-20T03:20:38.442Z,8.70
2023-05-20T03:23:06.006Z,8.70
2023-05-20T03:25:33.180Z,8.70
2023-05-20T03:28:00.307Z,8.80
2023-05-20T03:30:28.070Z,8.80
2023-05-20T03:32:57.903Z,8.90
2023-05-20T03:35:25.892Z,8.90
2023-05-20T03:37:53.476Z,8.90
2023-05-20T03:40:21.405Z,9.00
2023-05-20T03:42:48.411Z,9.00
2023-05-20T03:45:15.661Z,10.70
2023-05-20T03:47:42.539Z,10.50
2023-05-20T03:50:09.959Z,9.10
2023-05-20T03:52:37.274Z,9.20
2023-05-20T03:55:04.579Z,9.60
2023-05-20T03:57:32.412Z,9.20
2023-05-20T03:59:59.370Z,9.30
2023-05-20T04:02:26.331Z,9.40
2023-05-20T04:04:53.266Z,9.40
2023-05-20T04:07:20.130Z,9.60
2023-05-20T04:09:46.973Z,9.60
2023-05-20T04:12:14.069Z,9.70
2023-05-20T04:14:42.520Z,9.80
2023-05-20T04:17:09.753Z,9.90
2023-05-20T04:19:38.324Z,10.00
2023-05-20T04:22:05.513Z,10.00
2023-05-20T04:24:32.425Z,10.10
2023-05-20T04:26:59.409Z,10.10
2023-05-20T04:29:26.294Z,10.20
2023-05-20T04:31:53.764Z,10.20
2023-05-20T04:34:26.974Z,10.30
2023-05-20T04:36:53.954Z,10.30
2023-05-20T04:39:20.944Z,10.30
2023-05-20T04:41:48.547Z,10.40
2023-05-20T04:44:15.339Z,10.40
2023-05-20T04:46:42.309Z,11.80
2023-05-20T04:49:09.471Z,10.50
2023-05-20T04:51:36.383Z,10.60
2023-05-20T04:54:03.263Z,10.60
2023-05-20T04:56:30.085Z,10.70
2023-05-20T04:58:58.879Z,11.60
2023-05-20T05:01:25.786Z,10.90
2023-05-20T05:03:52.886Z,11.00
2023-05-20T05:06:19.817Z,11.10
2023-05-20T05:08:46.818Z,11.10
2023-05-20T05:11:13.720Z,11.20
2023-05-20T05:13:40.734Z,11.20
2023-05-20T05:16:07.816Z,11.30
2023-05-20T05:18:35.421Z,11.40
2023-05-20T05:21:06.658Z,11.50
2023-05-20T05:23:34.118Z,11.70
2023-05-20T05:26:01.151Z,11.70
2023-05-20T05:28:28.207Z,11.90
2023-05-20T05:30:56.661Z,12.00
2023-05-20T05:33:23.637Z,12.10
2023-05-20T05:35:50.930Z,12.20
2023-05-20T05:38:18.143Z,12.20
2023-05-20T05:40:45.039Z,12.40
2023-05-20T05:43:11.961Z,12.50
2023-05-20T05:45:39.391Z,12.60
2023-05-20T05:48:06.600Z,12.60
2023-05-20T05:50:33.934Z,12.70
2023-05-20T05:53:01.158Z,12.80
2023-05-20T05:55:28.141Z,12.90
2023-05-20T05:57:55.118Z,13.00
2023-05-20T06:00:22.731Z,13.20
2023-05-20T06:02:50.202Z,13.30
2023-05-20T06:05:17.805Z,13.40
2023-05-20T06:07:44.793Z,13.50
2023-05-20T06:10:12.068Z,13.70
2023-05-20T06:12:39.052Z,13.80
2023-05-20T06:15:07.987Z,13.90
2023-05-20T06:17:34.836Z,14.10
2023-05-20T06:20:01.901Z,14.20
2023-05-20T06:22:32.214Z,14.30
2023-05-20T06:25:05.004Z,14.40
2023-05-20T06:27:32.170Z,14.60
2023-05-20T06:29:59.357Z,14.70
2023-05-20T06:32:27.910Z,14.80
2023-05-20T06:34:54.960Z,14.90
2023-05-20T06:37:24.652Z,15.10
2023-05-20T06:39:54.243Z,15.20
2023-05-20T06:42:21.992Z,15.40
2023-05-20T06:44:49.383Z,15.50
2023-05-20T06:47:21.637Z,15.60
2023-05-20T06:49:55.518Z,15.80
2023-05-20T06:52:27.707Z,15.90
2023-05-20T06:55:05.201Z,16.00
2023-05-20T06:57:37.156Z,16.10
2023-05-20T07:00:06.364Z,16.20
2023-05-20T07:02:36.670Z,16.40
2023-05-20T07:05:08.704Z,16.50
2023-05-20T07:07:40.496Z,16.60
2023-05-20T07:10:12.534Z,16.80
2023-05-20T07:12:44.075Z,16.90
2023-05-20T07:15:11.584Z,17.10
2023-05-20T07:17:50.800Z,17.20
2023-05-20T07:20:25.394Z,17.30
2023-05-20T07:23:01.489Z,17.40
2023-05-20T07:25:32.106Z,17.50
2023-05-20T07:28:06.793Z,17.60
2023-05-20T07:30:37.296Z,17.70
2023-05-20T07:33:04.938Z,17.80
2023-05-20T07:35:39.196Z,17.80
2023-05-20T07:38:06.337Z,17.90
2023-05-20T07:40:37.223Z,17.90
2023-05-20T07:43:09.420Z,18.00
2023-05-20T07:45:40.156Z,18.10
2023-05-20T07:48:11.198Z,18.10
2023-05-20T07:50:39.544Z,18.20
2023-05-20T07:53:07.494Z,18.20
2023-05-20T07:55:39.365Z,18.30
2023-05-20T07:58:06.654Z,18.40
2023-05-20T08:00:37.548Z,18.40
2023-05-20T08:03:05.004Z,18.40
2023-05-20T08:05:32.373Z,18.50
2023-05-20T08:07:59.719Z,18.50
2023-05-20T08:10:26.810Z,18.60
2023-05-20T08:12:58.230Z,18.70
2023-05-20T08:15:33.449Z,18.80
2023-05-20T08:18:04.524Z,19.00
2023-05-20T08:20:36.888Z,19.10
2023-05-20T08:23:07.289Z,19.10
2023-05-20T08:25:38.746Z,19.30
2023-05-20T08:28:13.168Z,19.40
2023-05-20T08:30:44.838Z,19.40
2023-05-20T08:33:19.521Z,19.40
2023-05-20T08:35:48.104Z,19.50
2023-05-20T08:38:20.858Z,19.60
2023-05-20T08:40:53.953Z,19.70
2023-05-20T08:43:25.036Z,19.70
2023-05-20T08:45:52.939Z,21.30
2023-05-20T08:48:22.471Z,19.80
2023-05-20T08:50:57.597Z,19.90
2023-05-20T08:53:25.143Z,20.00
2023-05-20T08:56:00.803Z,20.10
2023-05-20T08:58:33.131Z,20.20
2023-05-20T09:01:00.487Z,20.30
2023-05-20T09:03:27.765Z,20.40
2023-05-20T09:06:06.844Z,20.40
2023-05-20T09:08:34.739Z,20.50
2023-05-20T09:11:02.773Z,20.50
2023-05-20T09:13:32.922Z,21.10
2023-05-20T09:16:01.786Z,20.70
2023-05-20T09:18:29.498Z,20.80
2023-05-20T09:20:57.555Z,20.90
2023-05-20T09:23:28.156Z,21.00
2023-05-20T09:25:55.288Z,21.10
2023-05-20T09:28:25.378Z,21.30
2023-05-20T09:30:59.298Z,21.50
2023-05-20T09:33:32.401Z,21.60
2023-05-20T09:36:04.952Z,21.60
2023-05-20T09:38:39.996Z,21.70
2023-05-20T09:41:10.461Z,21.80
2023-05-20T09:43:38.214Z,21.90
2023-05-20T09:46:06.033Z,21.90
2023-05-20T09:48:36.415Z,21.90
2023-05-20T09:51:05.724Z,21.90
2023-05-20T09:53:32.718Z,22.00
2023-05-20T09:55:59.873Z,22.10
2023-05-20T09:58:27.687Z,22.20
2023-05-20T10:00:54.487Z,22.30
2023-05-20T10:03:25.297Z,22.30
2023-05-20T10:06:05.864Z,22.40
2023-05-20T10:09:01.605Z,22.40
2023-05-20T10:11:34.891Z,22.50
2023-05-20T10:14:20.853Z,22.60
2023-05-20T10:17:23.806Z,22.60
2023-05-20T10:19:51.615Z,22.70
2023-05-20T10:22:33.954Z,22.60
2023-05-20T10:25:07.178Z,22.50
2023-05-20T10:27:47.968Z,22.50
2023-05-20T10:30:22.492Z,22.60
2023-05-20T10:32:57.583Z,22.70
2023-05-20T10:35:28.677Z,22.80
2023-05-20T10:38:10.956Z,22.80
2023-05-20T10:40:38.130Z,23.00
2023-05-20T10:43:12.915Z,23.10
2023-05-20T10:45:54.548Z,23.30
2023-05-20T10:48:32.469Z,23.40
2023-05-20T10:51:05.615Z,23.50
2023-05-20T10:53:41.458Z,23.50
2023-05-20T10:56:18.829Z,23.60
2023-05-20T10:58:45.862Z,23.70
2023-05-20T11:01:14.150Z,23.40
2023-05-20T11:03:42.050Z,23.30
2023-05-20T11:06:13.724Z,23.30
2023-05-20T11:08:41.938Z,23.50
2023-05-20T11:11:10.682Z,23.60
2023-05-20T11:13:37.732Z,23.70
2023-05-20T11:16:05.338Z,23.90
2023-05-20T11:18:32.266Z,24.00
2023-05-20T11:21:00.561Z,24.00
2023-05-20T11:23:29.470Z,24.10
2023-05-20T11:25:58.021Z,24.30
2023-05-20T11:28:25.849Z,24.40
2023-05-20T11:30:53.739Z,24.30
2023-05-20T11:33:20.815Z,24.30
2023-05-20T11:35:49.561Z,23.90
2023-05-20T11:38:16.993Z,24.00
2023-05-20T11:40:51.862Z,24.10
2023-05-20T11:43:19.833Z,24.30
2023-05-20T11:45:52.388Z,24.10
2023-05-20T11:48:19.746Z,24.10
2023-05-20T11:50:50.069Z,24.20
2023-05-20T11:53:18.845Z,24.40
2023-05-20T11:56:01.808Z,24.50
2023-05-20T11:58:32.436Z,24.50
2023-05-20T12:01:08.929Z,24.60
2023-05-20T12:03:41.253Z,24.60
2023-05-20T12:06:11.504Z,24.60
2023-05-20T12:08:38.445Z,24.60
2023-05-20T12:11:08.154Z,24.50
2023-05-20T12:13:35.572Z,24.50
2023-05-20T12:16:06.029Z,24.60
2023-05-20T12:18:35.492Z,24.50
2023-05-20T12:21:02.361Z,24.30
2023-05-20T12:23:30.850Z,24.10
2023-05-20T12:25:57.732Z,24.10
2023-05-20T12:28:24.603Z,24.20
2023-05-20T12:30:51.497Z,24.20
2023-05-20T12:33:21.408Z,24.10
2023-05-20T12:35:48.439Z,24.00
2023-05-20T12:38:15.294Z,24.00
2023-05-20T12:40:42.222Z,23.90
2023-05-20T12:43:09.254Z,23.60
2023-05-20T12:45:36.140Z,23.40
2023-05-20T12:48:03.374Z,23.30
2023-05-20T12:50:30.266Z,23.40
2023-05-20T12:52:57.100Z,23.60
2023-05-20T12:55:24.003Z,23.60
2023-05-20T12:57:52.118Z,23.50
2023-05-20T13:00:19.022Z,23.40
2023-05-20T13:02:46.002Z,23.50
2023-05-20T13:05:13.954Z,23.60
2023-05-20T13:07:40.813Z,23.60
2023-05-20T13:10:08.325Z,23.60
2023-05-20T13:12:35.516Z,23.70
2023-05-20T13:15:02.594Z,23.80
2023-05-20T13:17:29.486Z,23.90
2023-05-20T13:19:56.540Z,24.00
2023-05-20T13:22:23.452Z,24.00
2023-05-20T13:24:50.314Z,23.90
2023-05-20T13:27:17.109Z,24.10
2023-05-20T13:29:44.003Z,24.20
2023-05-20T13:32:10.933Z,24.20
2023-05-20T13:34:38.812Z,24.10
2023-05-20T13:37:06.568Z,24.00
2023-05-20T13:39:33.938Z,23.90
2023-05-20T13:42:00.979Z,23.80
2023-05-20T13:44:27.894Z,23.70
2023-05-20T13:46:54.736Z,23.80
2023-05-20T13:49:22.087Z,23.80
2023-05-20T13:51:48.932Z,23.80
2023-05-20T13:54:16.190Z,23.60
2023-05-20T13:56:43.094Z,23.80
2023-05-20T13:59:09.995Z,23.80
2023-05-20T14:01:38.950Z,23.80
2023-05-20T14:04:07.468Z,23.70
2023-05-20T14:06:34.420Z,23.70
2023-05-20T14:09:03.285Z,23.60
2023-05-20T14:11:30.116Z,23.50
2023-05-20T14:13:56.928Z,23.50
2023-05-20T14:16:23.937Z,23.40
2023-05-20T14:18:50.900Z,23.20
2023-05-20T14:21:17.758Z,23.10
2023-05-20T14:23:45.466Z,23.00
2023-05-20T14:26:12.694Z,22.90
2023-05-20T14:28:39.877Z,22.90
2023-05-20T14:31:10.553Z,22.90
2023-05-20T14:33:37.725Z,22.90
2023-05-20T14:36:05.011Z,22.80
2023-05-20T14:38:31.933Z,22.80
2023-05-20T14:40:59.343Z,22.90
2023-05-20T14:43:26.386Z,22.90
2023-05-20T14:45:53.639Z,22.90
2023-05-20T14:48:20.868Z,23.10
2023-05-20T14:50:50.471Z,23.30
2023-05-20T14:53:21.731Z,23.00
2023-05-20T14:55:49.104Z,22.80
2023-05-20T14:58:16.194Z,22.70
2023-05-20T15:00:43.635Z,22.60
2023-05-20T15:03:13.357Z,22.50
2023-05-20T15:05:44.244Z,22.40
2023-05-20T15:08:11.822Z,22.40
2023-05-20T15:10:42.481Z,22.50
2023-05-20T15:13:16.612Z,22.50
2023-05-20T15:15:43.737Z,22.50
2023-05-20T15:18:13.157Z,22.50
2023-05-20T15:20:44.008Z,22.60
2023-05-20T15:23:11.346Z,22.60
2023-05-20T15:25:41.070Z,22.70
2023-05-20T15:28:08.035Z,22.60
2023-05-20T15:30:38.338Z,22.50
2023-05-20T15:33:09.413Z,22.40
2023-05-20T15:35:40.075Z,22.50
2023-05-20T15:38:07.124Z,22.40
2023-05-20T15:40:34.287Z,22.20
2023-05-20T15:43:04.928Z,22.00
2023-05-20T15:45:32.543Z,21.90
2023-05-20T15:48:00.231Z,22.00
2023-05-20T15:50:28.335Z,22.10
2023-05-20T15:52:55.884Z,22.10
2023-05-20T15:55:25.822Z,22.20
2023-05-20T15:57:52.872Z,22.20
2023-05-20T16:00:21.205Z,22.30
2023-05-20T16:02:48.336Z,22.20
2023-05-20T16:05:19.091Z,22.30
2023-05-20T16:07:47.937Z,22.40
2023-05-20T16:10:14.994Z,22.50
2023-05-20T16:12:42.014Z,22.50
2023-05-20T16:15:10.149Z,22.60
2023-05-20T16:17:43.520Z,22.60
2023-05-20T16:20:17.225Z,22.70
2023-05-20T16:22:45.389Z,22.80
2023-05-20T16:25:13.243Z,22.80
2023-05-20T16:27:40.715Z,22.80
2023-05-20T16:30:08.587Z,22.80
2023-05-20T16:32:35.503Z,22.80
2023-05-20T16:35:02.814Z,22.70
2023-05-20T16:37:29.951Z,22.70
2023-05-20T16:39:57.022Z,22.90
2023-05-20T16:42:24.116Z,22.50
2023-05-20T16:44:56.137Z,22.40
2023-05-20T16:47:23.229Z,22.50
2023-05-20T16:49:50.310Z,22.50
2023-05-20T16:52:21.103Z,22.70
2023-05-20T16:54:52.388Z,22.60
2023-05-20T16:57:19.296Z,22.70
2023-05-20T16:59:49.581Z,22.80
2023-05-20T17:02:17.536Z,22.90
2023-05-20T17:04:44.391Z,23.00
2023-05-20T17:07:12.050Z,23.10
2023-05-20T17:09:38.931Z,23.30
2023-05-20T17:12:06.543Z,23.40
2023-05-20T17:14:36.122Z,23.70
2023-05-20T17:17:03.342Z,24.20
2023-05-20T17:19:33.241Z,24.60
2023-05-20T17:22:01.480Z,25.10
2023-05-20T17:24:29.311Z,25.80
2023-05-20T17:26:59.023Z,26.20
2023-05-20T17:29:26.010Z,26.70
2023-05-20T17:31:56.360Z,27.50
2023-05-20T17:34:23.385Z,28.30
2023-05-20T17:36:51.843Z,28.70
2023-05-20T17:39:21.995Z,28.70
2023-05-20T17:41:50.019Z,29.00
2023-05-20T17:44:17.036Z,29.50
2023-05-20T17:46:44.108Z,30.00
2023-05-20T17:49:11.296Z,30.40
2023-05-20T17:51:38.835Z,30.40
2023-05-20T17:54:06.163Z,30.40
2023-05-20T17:56:37.014Z,30.50
2023-05-20T17:59:06.570Z,30.50
2023-05-20T18:01:37.561Z,30.50
2023-05-20T18:04:05.874Z,30.60
2023-05-20T18:06:34.655Z,31.00
2023-05-20T18:09:02.240Z,31.30
2023-05-20T18:11:32.244Z,31.30
2023-05-20T18:14:00.079Z,31.30
2023-05-20T18:16:28.403Z,31.40
2023-05-20T18:18:56.069Z,31.30
2023-05-20T18:21:24.192Z,30.90
2023-05-20T18:23:51.193Z,30.60
2023-05-20T18:26:21.954Z,30.50
2023-05-20T18:28:50.344Z,30.40
2023-05-20T18:31:17.601Z,29.90
2023-05-20T18:33:44.994Z,29.10
2023-05-20T18:36:22.134Z,27.90
2023-05-20T18:38:49.664Z,26.90
2023-05-20T18:41:16.712Z,25.90
2023-05-20T18:43:47.551Z,25.20
2023-05-20T18:46:21.645Z,24.70
2023-05-20T18:48:53.340Z,24.20
2023-05-20T18:51:23.660Z,23.80
2023-05-20T18:53:54.000Z,23.20
2023-05-20T18:56:29.523Z,22.70
2023-05-20T18:59:00.892Z,22.40
2023-05-20T19:01:27.959Z,22.10
2023-05-20T19:04:02.170Z,21.90
2023-05-20T19:06:37.801Z,21.60
2023-05-20T19:09:05.959Z,21.40
2023-05-20T19:11:36.560Z,21.20
2023-05-20T19:14:04.647Z,21.00
2023-05-20T19:16:32.507Z,20.80
2023-05-20T19:19:03.990Z,20.70
2023-05-20T19:21:37.671Z,20.50
2023-05-20T19:24:09.100Z,20.30
2023-05-20T19:26:37.109Z,20.10
2023-05-20T19:29:04.528Z,20.00
2023-05-20T19:31:34.910Z,19.90
2023-05-20T19:34:05.984Z,19.70
2023-05-20T19:36:33.337Z,19.60
2023-05-20T19:39:06.260Z,19.40
2023-05-20T19:41:33.402Z,19.20
2023-05-20T19:44:04.654Z,19.10
2023-05-20T19:46:33.118Z,18.90
2023-05-20T19:49:00.778Z,18.70
2023-05-20T19:51:31.568Z,18.50
2023-05-20T19:53:58.837Z,18.40
2023-05-20T19:56:30.234Z,18.20
2023-05-20T19:59:08.164Z,18.00
2023-05-20T20:01:39.291Z,17.90
2023-05-20T20:04:09.189Z,17.70
2023-05-20T20:06:36.466Z,17.60
2023-05-20T20:09:05.009Z,17.40
2023-05-20T20:11:33.264Z,17.30
2023-05-20T20:14:00.334Z,17.20
2023-05-20T20:16:27.594Z,17.00
2023-05-20T20:18:58.220Z,16.90
2023-05-20T20:21:29.099Z,16.80
2023-05-20T20:24:00.306Z,16.70
2023-05-20T20:26:30.867Z,16.50
2023-05-20T20:28:57.899Z,16.40
2023-05-20T20:31:32.562Z,16.30
2023-05-20T20:34:03.431Z,16.10
2023-05-20T20:36:35.415Z,15.90
2023-05-20T20:39:06.670Z,15.90
2023-05-20T20:41:38.944Z,15.70
2023-05-20T20:44:07.592Z,15.70
2023-05-20T20:46:37.773Z,15.60
2023-05-20T20:49:09.232Z,15.50
2023-05-20T20:51:36.481Z,15.40
2023-05-20T20:54:04.429Z,15.30
2023-05-20T20:56:31.690Z,15.20
2023-05-20T20:58:59.132Z,15.10
2023-05-20T21:01:28.168Z,15.10
2023-05-20T21:03:55.657Z,15.00
2023-05-20T21:06:27.669Z,14.90
2023-05-20T21:08:59.264Z,14.80
2023-05-20T21:11:28.164Z,14.70
2023-05-20T21:13:57.740Z,14.70
2023-05-20T21:16:25.615Z,14.60
2023-05-20T21:18:56.926Z,14.50
2023-05-20T21:21:24.115Z,14.40
2023-05-20T21:23:52.323Z,14.30
2023-05-20T21:26:25.204Z,14.30
2023-05-20T21:28:53.959Z,14.20
2023-05-20T21:31:21.474Z,14.10
2023-05-20T21:33:52.048Z,14.00
2023-05-20T21:36:21.171Z,14.00
2023-05-20T21:38:51.207Z,13.90
2023-05-20T21:41:19.465Z,13.90
2023-05-20T21:43:46.949Z,13.80
2023-05-20T21:46:14.468Z,13.80
2023-05-20T21:48:42.251Z,13.70
2023-05-20T21:51:09.672Z,13.60
2023-05-20T21:53:37.043Z,13.60
2023-05-20T21:56:05.034Z,13.50
2023-05-20T21:58:41.091Z,13.50
2023-05-20T22:01:10.349Z,13.40
2023-05-20T22:03:40.129Z,13.40
2023-05-20T22:06:07.826Z,13.30
2023-05-20T22:08:35.421Z,13.20
2023-05-20T22:11:07.414Z,13.10
2023-05-20T22:13:36.103Z,13.10
2023-05-20T22:16:07.988Z,13.00
2023-05-20T22:18:37.796Z,13.00
2023-05-20T22:21:06.283Z,12.90
2023-05-20T22:23:33.931Z,12.80
2023-05-20T22:26:01.883Z,12.80
2023-05-20T22:28:29.287Z,12.60
2023-05-20T22:30:57.133Z,12.60
2023-05-20T22:33:31.290Z,12.50
2023-05-20T22:35:58.944Z,12.50
2023-05-20T22:38:26.265Z,12.40
2023-05-20T22:41:00.691Z,12.40
2023-05-20T22:43:29.110Z,12.30
2023-05-20T22:45:56.691Z,12.20
2023-05-20T22:48:25.216Z,12.20
2023-05-20T22:50:54.207Z,12.10
2023-05-20T22:53:23.191Z,12.10
2023-05-20T22:55:52.369Z,12.10
2023-05-20T22:58:24.271Z,12.00
2023-05-20T23:00:51.588Z,12.00
2023-05-20T23:03:22.027Z,11.80
2023-05-20T23:05:50.053Z,11.80
2023-05-20T23:08:17.318Z,11.90
2023-05-20T23:10:48.620Z,11.90
2023-05-20T23:13:16.129Z,11.90
2023-05-20T23:15:47.976Z,11.90
2023-05-20T23:18:18.660Z,11.90
2023-05-20T23:20:46.231Z,11.90
2023-05-20T23:23:13.586Z,12.00
2023-05-20T23:25:45.878Z,11.90
2023-05-20T23:28:14.489Z,11.90
2023-05-20T23:30:45.681Z,11.90
2023-05-20T23:33:13.444Z,12.00
2023-05-20T23:35:40.809Z,12.00
2023-05-20T23:38:09.212Z,12.00
2023-05-20T23:40:36.508Z,11.90
2023-05-20T23:43:03.744Z,11.80
2023-05-20T23:45:30.969Z,11.70
2023-05-20T23:47:59.269Z,11.70
2023-05-20T23:50:27.987Z,11.60
2023-05-20T23:52:57.488Z,11.60
2023-05-20T23:55:25.653Z,11.60
2023-05-20T23:57:52.886Z,11.50
